Aubange, Belgium
Current Conditions -  °F | °C
As of 12:20 PM on Thursday 23 Oct 2014 (Local Time) from ELLX Reporting Station
Broken Clouds Broken Clouds  
Wind Chill: 50°   Ceiling: 4400
Heat Index: 50°   Visibility: 5mi
Dew Point: 45°   Wind: 6mph
Humidity: 82%   Direction: 240°WSW
Pressure: 30.27"   Gusts: NA
Location:  49.57°N, 5.8°E
Report Text: ELLX 231020Z 24005KT 210V270 8000 FEW010 BKN044 10/07 Q1025 NOSIG
Loading
Personal Weather Stations






























Interactive Weather Map
Tropical Storm Tracking
New forecast layout! Learn more

10-Day Weather Forecast

Advertisements
Track Severe Weather on mobile